地図

経路データ

SID SEASON NUMBER BASIN SUBBASIN NAME ISO_TIME NATURE LAT LON WMO_WIND WMO_PRES WMO_AGENCY TRACK_TYPE DIST2LAND LANDFALL IFLAG USA_AGENCY USA_ATCF_ID USA_LAT USA_LON USA_RECORD USA_STATUS USA_WIND USA_PRES USA_SSHS USA_R34_NE USA_R34_SE USA_R34_SW USA_R34_NW USA_R50_NE USA_R50_SE USA_R50_SW USA_R50_NW USA_R64_NE USA_R64_SE USA_R64_SW USA_R64_NW USA_POCI USA_ROCI USA_RMW USA_EYE TOKYO_LAT TOKYO_LON TOKYO_GRADE TOKYO_WIND TOKYO_PRES TOKYO_R50_DIR TOKYO_R50_LONG TOKYO_R50_SHORT TOKYO_R30_DIR TOKYO_R30_LONG TOKYO_R30_SHORT TOKYO_LAND CMA_LAT CMA_LON CMA_CAT CMA_WIND CMA_PRES HKO_LAT HKO_LON HKO_CAT HKO_WIND HKO_PRES NEWDELHI_LAT NEWDELHI_LON NEWDELHI_GRADE NEWDELHI_WIND NEWDELHI_PRES NEWDELHI_CI NEWDELHI_DP NEWDELHI_POCI REUNION_LAT REUNION_LON REUNION_TYPE REUNION_WIND REUNION_PRES REUNION_TNUM REUNION_CI REUNION_RMW REUNION_R34_NE REUNION_R34_SE REUNION_R34_SW REUNION_R34_NW REUNION_R50_NE REUNION_R50_SE REUNION_R50_SW REUNION_R50_NW REUNION_R64_NE REUNION_R64_SE REUNION_R64_SW REUNION_R64_NW BOM_LAT BOM_LON BOM_TYPE BOM_WIND BOM_PRES BOM_TNUM BOM_CI BOM_RMW BOM_R34_NE BOM_R34_SE BOM_R34_SW BOM_R34_NW BOM_R50_NE BOM_R50_SE BOM_R50_SW BOM_R50_NW BOM_R64_NE BOM_R64_SE BOM_R64_SW BOM_R64_NW BOM_ROCI BOM_POCI BOM_EYE BOM_POS_METHOD BOM_PRES_METHOD NADI_LAT NADI_LON NADI_CAT NADI_WIND NADI_PRES WELLINGTON_LAT WELLINGTON_LON WELLINGTON_WIND WELLINGTON_PRES DS824_LAT DS824_LON DS824_STAGE DS824_WIND DS824_PRES TD9636_LAT TD9636_LON TD9636_STAGE TD9636_WIND TD9636_PRES TD9635_LAT TD9635_LON TD9635_WIND TD9635_PRES TD9635_ROCI NEUMANN_LAT NEUMANN_LON NEUMANN_CLASS NEUMANN_WIND NEUMANN_PRES MLC_LAT MLC_LON MLC_CLASS MLC_WIND MLC_PRES USA_GUST BOM_GUST BOM_GUST_PER REUNION_GUST REUNION_GUST_PER USA_SEAHGT USA_SEARAD_NE USA_SEARAD_SE USA_SEARAD_SW USA_SEARAD_NW STORM_SPEED STORM_DIR
1955277N16134 1955 82 WP MM NORA 1955-10-04 06:00:00 TS 15.8000 133.800 main 982 943 __O___________ -1 15.8000 133.800 1 29 1004 7 273
1955277N16134 1955 82 WP MM NORA 1955-10-04 09:00:00 TS 15.8200 133.417 main 943 909 __P___________ -1 15.8200 133.417 1 29 1004 8 277
1955277N16134 1955 82 WP MM NORA 1955-10-04 12:00:00 TS 15.9000 133.000 main 909 876 __O___________ -1 15.9000 133.000 1 29 1004 9 287
1955277N16134 1955 82 WP MM NORA 1955-10-04 15:00:00 TS 16.0776 132.535 main 872 846 __P___________ -1 16.0776 132.535 1 29 1004 10 295
1955277N16134 1955 82 WP MM NORA 1955-10-04 18:00:00 TS 16.3000 132.100 main 846 825 __O___________ -1 16.3000 132.100 1 29 1004 8 298
1955277N16134 1955 82 WP MM NORA 1955-10-04 21:00:00 TS 16.4699 131.762 main 832 819 __P___________ -1 16.4699 131.762 1 29 1004 7 305
1955277N16134 1955 82 WP MM NORA 1955-10-05 00:00:00 TS 16.7000 131.500 main 819 812 __O___________ -1 16.7000 131.500 1 29 1004 8 322
1955277N16134 1955 82 WP MM NORA 1955-10-05 03:00:00 TS 17.0925 131.263 main 821 812 __P___________ -1 17.0925 131.263 1 29 1004 9 334
1955277N16134 1955 82 WP MM NORA 1955-10-05 06:00:00 TS 17.5000 131.100 main 822 822 __O___________ -1 17.5000 131.100 1 29 1004 7 342
1955277N16134 1955 82 WP MM NORA 1955-10-05 09:00:00 TS 17.7650 131.035 main 830 830 __P___________ -1 17.7650 131.035 1 29 1003 5 349
1955277N16134 1955 82 WP MM NORA 1955-10-05 12:00:00 TS 18.0000 131.000 main 841 841 __O___________ -1 18.0000 131.000 1 29 1003 6 351
1955277N16134 1955 82 WP MM NORA 1955-10-05 15:00:00 TS 18.3524 130.930 main 857 857 __P___________ -1 18.3524 130.930 1 29 1003 6 342
1955277N16134 1955 82 WP MM NORA 1955-10-05 18:00:00 TS 18.6000 130.800 main 862 837 __O___________ -1 18.6000 130.800 1 29 1003 5 301
1955277N16134 1955 82 WP MM NORA 1955-10-05 21:00:00 TS 18.5901 130.520 main 837 806 __P___________ -1 18.5901 130.520 1 29 1001 5 247
1955277N16134 1955 82 WP MM NORA 1955-10-06 00:00:00 TS 18.4000 130.300 main 806 786 __O___________ -1 18.4000 130.300 1 29 1000 6 203
1955277N16134 1955 82 WP MM NORA 1955-10-06 03:00:00 TS 18.0697 130.288 main 786 773 __P___________ -1 18.0697 130.288 1 29 1000 6 162
1955277N16134 1955 82 WP MM NORA 1955-10-06 06:00:00 TS 17.8000 130.500 main 785 785 __O___________ -1 17.8000 130.500 1 29 1000 7 113
1955277N16134 1955 82 WP MM NORA 1955-10-06 09:00:00 TS 17.8100 130.918 main 821 821 __P___________ -1 17.8100 130.918 1 33 1000 10 78
1955277N16134 1955 82 WP MM NORA 1955-10-06 12:00:00 TS 18.0000 131.500 main 887 887 __O___________ -1 18.0000 131.500 2 38 1000 13 68
1955277N16134 1955 82 WP MM NORA 1955-10-06 15:00:00 TS 18.2851 132.142 main 958 958 __P___________ -1 18.2851 132.142 2 38 1000 14 64
1955277N16134 1955 82 WP MM NORA 1955-10-06 18:00:00 TS 18.6000 132.800 main 1039 1039 __O___________ -1 18.6000 132.800 2 38 1000 13 66
1955277N16134 1955 82 WP MM NORA 1955-10-06 21:00:00 TS 18.8074 133.395 main 1105 1105 __P___________ -1 18.8074 133.395 2 38 1000 13 101
1955277N16134 1955 82 WP MM NORA 1955-10-07 00:00:00 TS 18.3556 134.100 1000 tokyo main 1151 1147 OOO______OOO__ jtwc_wp WP181955 17.5000 134.300 55 0 19.2000 134.100 9 1000 0 0 0 19.0000 133.900 2 38 1000 17.5000 134.300 TC 55 17.5000 134.300 2 55 17.5000 134.300 55 998 300 9 105
1955277N16134 1955 82 WP MM NORA 1955-10-07 03:00:00 TS 18.5612 134.359 main 1189 1189 PPP______PPP__ WP181955 18.0275 134.407 57 0 19.4051 134.347 9 997 0 0 19.2423 134.295 2 43 997 18.0275 134.407 TC 57 17.9561 134.353 2 57 18.0275 134.407 57 998 360 7 38
1955277N16134 1955 82 WP MM NORA 1955-10-07 06:00:00 TS 18.8684 134.525 995 tokyo main 1213 1213 OOO______OPO__ jtwc_wp WP181955 18.5000 134.500 60 0 19.6000 134.600 9 995 0 0 0 19.5000 134.600 3 48 995 18.5000 134.500 TC 60 18.3997 134.425 2 60 18.5000 134.500 60 998 420 7 26
1955277N16134 1955 82 WP MM NORA 1955-10-07 09:00:00 TS 19.1655 134.666 main 1247 1247 PPP______PPP__ WP181955 18.8799 134.578 62 0 19.7850 134.858 9 995 0 0 19.7499 134.873 3 48 995 18.8799 134.578 TC 62 18.8185 134.535 2 62 18.8799 134.578 62 996 420 7 26
1955277N16134 1955 82 WP MM NORA 1955-10-07 12:00:00 TS 19.4667 134.833 995 tokyo main 1272 1272 OOO______OOO__ jtwc_wp WP181955 19.2000 134.700 65 1 20.0000 135.100 9 995 0 0 0 20.0000 135.100 3 48 995 19.2000 134.700 TC 65 19.2000 134.700 3 65 19.2000 134.700 65 994 420 7 33
1955277N16134 1955 82 WP MM NORA 1955-10-07 15:00:00 TS 19.7584 135.066 main 1315 1308 PPP______PPP__ WP181955 19.5001 134.935 67 1 20.2850 135.330 9 992 0 0 20.2275 135.330 3 53 992 19.5001 134.935 TC 67 19.5378 134.929 3 66 19.5001 134.935 66 992 450 7 36
1955277N16134 1955 82 WP MM NORA 1955-10-07 18:00:00 TS 20.0584 135.298 990 tokyo main 1301 1277 OOO______OPO__ jtwc_wp WP181955 19.8000 135.200 70 1 20.6000 135.500 9 990 0 0 0 20.5000 135.500 3 58 990 19.8000 135.200 TC 70 19.8505 135.187 3 67 19.8000 135.200 68 990 480 8 32
1955277N16134 1955 82 WP MM NORA 1955-10-07 21:00:00 TS 20.3971 135.489 main 1277 1250 PPP______PPP__ WP181955 20.1275 135.445 70 1 20.9225 135.588 9 987 0 0 20.9150 135.588 3 58 988 20.1275 135.445 TC 70 20.1628 135.426 3 68 20.1275 135.445 69 988 450 8 22
1955277N16134 1955 82 WP MM NORA 1955-10-08 00:00:00 TS 20.7500 135.600 985 tokyo main 1239 1208 OOO______OOO__ jtwc_wp WP181955 20.5000 135.600 70 1 21.2000 135.600 9 985 0 0 0 21.3000 135.600 3 58 987 20.5000 135.600 TC 70 20.5000 135.600 4 70 20.5000 135.600 70 987 420 7 7
1955277N16134 1955 82 WP MM NORA 1955-10-08 03:00:00 TS 21.0892 135.581 main 1208 1173 PPP______PPP__ WP181955 20.9425 135.580 70 1 21.3500 135.558 9 985 0 0 21.4575 135.558 3 63 986 20.9425 135.580 TC 70 20.9001 135.628 4 70 20.9425 135.580 70 986 450 7 354
1955277N16134 1955 82 WP MM NORA 1955-10-08 06:00:00 TS 21.4379 135.515 985 tokyo main 1173 1132 OOO______OPO__ jtwc_wp WP181955 21.4000 135.500 70 1 21.5000 135.500 9 985 0 0 0 21.6000 135.500 4 68 985 21.4000 135.500 TC 70 21.3273 135.589 4 70 21.4000 135.500 70 985 480 7 353
1955277N16134 1955 82 WP MM NORA 1955-10-08 09:00:00 TS 21.8143 135.488 main 1132 1092 PPP______PPP__ WP181955 21.8150 135.478 70 1 21.7625 135.485 9 985 0 0 21.9125 135.478 4 68 985 21.8150 135.478 TC 70 21.7658 135.531 4 70 21.8150 135.478 70 984 510 8 0
1955277N16134 1955 82 WP MM NORA 1955-10-08 12:00:00 TS 22.2000 135.500 985 tokyo main 1092 1061 OOO______OOO__ jtwc_wp WP181955 22.2000 135.500 70 1 22.1000 135.500 9 985 0 0 0 22.3000 135.500 4 68 985 22.2000 135.500 TC 70 22.2000 135.500 4 70 22.2000 135.500 70 984 540 8 5
1955277N16134 1955 82 WP MM NORA 1955-10-08 15:00:00 TS 22.5643 135.568 main 1056 1026 PPP______PPP__ WP181955 22.5425 135.585 72 1 22.4700 135.520 9 985 0 0 22.6850 135.570 4 68 985 22.5425 135.585 TC 72 22.6031 135.560 4 72 22.5425 135.585 72 984 540 8 12
1955277N16134 1955 82 WP MM NORA 1955-10-08 18:00:00 TS 22.9500 135.676 985 tokyo main 1020 986 OOO______OPO__ jtwc_wp WP181955 22.9000 135.700 75 1 22.9000 135.600 9 985 0 0 0 23.1000 135.700 4 68 985 22.9000 135.700 TC 75 23.0000 135.655 4 75 22.9000 135.700 75 984 540 9 15
1955277N16134 1955 82 WP MM NORA 1955-10-08 21:00:00 TS 23.3995 135.816 main 986 953 PPP______PPP__ WP181955 23.3500 135.800 77 1 23.3926 135.814 9 985 0 0 23.5576 135.907 4 72 983 23.3500 135.800 TC 77 23.3969 135.772 4 77 23.3500 135.800 77 982 480 9 15
1955277N16134 1955 82 WP MM NORA 1955-10-09 00:00:00 TS 23.8500 135.950 985 tokyo main 949 920 OOO______OOO__ jtwc_wp WP181955 23.8000 135.900 80 1 23.9000 136.000 9 985 0 0 0 24.0000 136.100 4 77 982 23.8000 135.900 TC 80 23.8000 135.900 4 80 23.8000 135.900 80 981 420 9 13
1955277N16134 1955 82 WP MM NORA 1955-10-09 03:00:00 TS 24.2273 136.024 main 920 887 PPP______PPP__ WP181955 24.1425 135.993 80 1 24.3725 135.958 9 982 0 0 24.3499 136.165 4 77 981 24.1425 135.993 TC 80 24.2138 136.042 4 81 24.1425 135.993 80 980 420 8 10
1955277N16134 1955 82 WP MM NORA 1955-10-09 06:00:00 TS 24.6059 136.098 980 tokyo main 887 854 OOO______OPO__ jtwc_wp WP181955 24.5000 136.100 80 1 24.8000 135.900 9 980 0 0 0 24.7000 136.200 4 77 980 24.5000 136.100 TC 80 24.6351 136.187 4 82 24.5000 136.100 80 979 420 8 13
1955277N16134 1955 82 WP MM NORA 1955-10-09 09:00:00 TS 25.0432 136.239 main 854 819 PPP______PPP__ WP181955 24.9775 136.257 82 1 25.1426 136.035 9 980 0 0 25.1200 136.315 4 77 979 24.9775 136.257 TC 82 25.0638 136.313 4 83 24.9775 136.257 82 978 420 9 15
1955277N16134 1955 82 WP MM NORA 1955-10-09 12:00:00 TS 25.5167 136.367 980 tokyo main 819 774 OOO______OOO__ jtwc_wp WP181955 25.5000 136.400 85 2 25.5000 136.200 9 980 0 0 0 25.6000 136.400 4 77 979 25.5000 136.400 TC 85 25.5000 136.400 4 85 25.5000 136.400 85 978 420 10 10
1955277N16134 1955 82 WP MM NORA 1955-10-09 15:00:00 TS 26.0150 136.423 main 774 731 PPP______PPP__ WP181955 26.0150 136.487 87 2 25.9775 136.295 9 977 0 0 26.1575 136.388 4 82 978 26.0150 136.487 TC 87 25.9103 136.391 4 86 26.0150 136.487 87 977 390 10 3
1955277N16134 1955 82 WP MM NORA 1955-10-09 18:00:00 TS 26.5054 136.407 975 tokyo main 731 691 OOO______OPO__ jtwc_wp WP181955 26.5000 136.500 90 2 26.5000 136.300 9 975 0 0 0 26.7000 136.300 5 87 977 26.5000 136.500 TC 90 26.3325 136.345 4 87 26.5000 136.500 90 977 360 9 352
1955277N16134 1955 82 WP MM NORA 1955-10-09 21:00:00 TS 26.9152 136.289 main 691 651 PPP______PPP__ WP181955 26.8700 136.400 90 2 27.0001 136.128 9 975 0 0 27.0925 136.106 5 87 976 26.8700 136.400 TC 90 26.7884 136.301 4 88 26.8700 136.400 90 976 360 9 348
1955277N16134 1955 82 WP MM NORA 1955-10-10 00:00:00 TS 27.3667 136.200 975 tokyo main 644 605 OOO______OOO__ jtwc_wp WP181955 27.3000 136.300 90 2 27.5000 136.000 9 975 0 0 0 27.5000 136.000 5 87 976 27.3000 136.300 TC 90 27.3000 136.300 4 90 27.3000 136.300 90 976 360 11 359
1955277N16134 1955 82 WP MM NORA 1955-10-10 03:00:00 TS 27.9678 136.263 main 604 538 PPP______PPP__ WP181955 27.9699 136.298 90 2 27.9625 136.133 9 975 0 0 28.0626 136.189 5 87 974 27.9699 136.298 TC 90 27.8719 136.361 4 88 27.9699 136.298 90 973 330 13 9
1955277N16134 1955 82 WP MM NORA 1955-10-10 06:00:00 TS 28.6337 136.429 975 tokyo main 538 474 OOO______OPO__ jtwc_wp WP181955 28.7000 136.400 90 2 28.5000 136.400 9 975 0 0 0 28.7000 136.500 5 87 972 28.7000 136.400 TC 90 28.5021 136.475 4 87 28.7000 136.400 90 971 300 14 15
1955277N16134 1955 82 WP MM NORA 1955-10-10 09:00:00 TS 29.2715 136.654 main 465 404 PPP______PPP__ WP181955 29.3000 136.613 87 2 29.2200 136.685 9 972 0 0 29.3275 136.750 5 87 971 29.3000 136.613 TC 87 29.1811 136.652 4 86 29.3000 136.613 87 969 330 14 19
1955277N16134 1955 82 WP MM NORA 1955-10-10 12:00:00 TS 29.9333 136.933 970 tokyo main 404 338 OOO______OOO__ jtwc_wp WP181955 29.9000 136.900 85 2 30.0000 137.000 9 970 0 0 0 30.0000 137.000 5 87 970 29.9000 136.900 TC 85 29.9000 136.900 4 85 29.9000 136.900 85 967 360 14 19
1955277N16134 1955 82 WP MM NORA 1955-10-10 15:00:00 TS 30.6066 137.171 main 338 283 PPP______PPP__ WP181955 30.5623 137.164 82 1 30.6846 137.264 9 970 0 0 30.7267 137.177 5 87 970 30.5623 137.164 TC 82 30.5417 137.094 4 83 30.5623 137.164 82 969 390 15 19
1955277N16134 1955 82 WP MM NORA 1955-10-10 18:00:00 TS 31.3388 137.496 970 tokyo main 283 243 OOO______OPO__ jtwc_wp WP181955 31.3000 137.500 80 1 31.4000 137.600 9 970 0 0 0 31.5000 137.500 5 87 971 31.3000 137.500 TC 80 31.2329 137.375 4 81 31.3000 137.500 80 971 420 16 23
1955277N16134 1955 82 WP MM NORA 1955-10-10 21:00:00 TS 32.1231 137.913 main 243 179 PPP______PPP__ WP181955 32.0955 137.855 80 1 32.1877 137.990 9 972 0 0 32.2315 138.104 5 82 972 32.0955 137.855 TC 80 32.0328 137.818 4 79 32.0955 137.855 79 972 420 19 29
1955277N16134 1955 82 WP MM NORA 1955-10-11 00:00:00 TS 33.0333 138.617 975 tokyo main 179 100 OOO______OOO__ jtwc_wp WP181955 33.0000 138.500 80 1 33.1000 138.700 9 975 0 0 0 33.1000 139.000 4 77 973 33.0000 138.500 TC 80 33.0000 138.500 4 78 33.0000 138.500 78 974 420 25 39
1955277N16134 1955 82 WP MM NORA 1955-10-11 03:00:00 TS 34.0411 139.784 main 100 48 PPP______PPP__ WP181955 33.9318 139.676 77 1 34.0830 139.996 9 975 0 0 34.1967 140.197 4 77 973 33.9318 139.676 TC 77 34.1718 139.484 4 74 33.9318 139.676 76 974 420 31 44
1955277N16134 1955 82 WP MM NORA 1955-10-11 06:00:00 TS 35.2643 141.196 975 tokyo main 52 49 OOO______OPO__ jtwc_wp WP181955 35.1000 141.100 75 1 35.3000 141.500 9 975 0 0 0 35.5000 141.500 4 77 974 35.1000 141.100 TC 75 35.5051 140.737 4 71 35.1000 141.100 75 974 420 35 39
1955277N16134 1955 82 WP MM NORA 1955-10-11 09:00:00 TS 36.7590 142.465 main 134 134 PPP______PPP__ WP181955 36.6325 142.341 70 1 36.8424 142.749 9 972 0 0 36.8990 142.559 4 77 973 36.6325 142.341 TC 70 36.9358 142.199 4 68 36.6411 142.467 70 973 390 38 33
1955277N16134 1955 82 WP MM NORA 1955-10-11 12:00:00 TS 38.4667 143.822 970 tokyo main 181 181 OOO______OOO__ jtwc_wp WP181955 38.4000 143.800 65 1 38.6000 144.000 9 970 0 0 0 38.5000 143.700 4 77 973 38.4000 143.800 TC 65 38.4000 143.800 4 65 38.4000 143.800 65 973 360 43 34
1955277N16134 1955 82 WP MM NORA 1955-10-11 15:00:00 TS 40.2929 145.526 main 261 198 PPP______P____ WP181955 40.3032 145.861 62 0 40.3177 145.280 9 970 0 0 40.2474 145.101 4 77 971 40.3032 145.861 TC 62 4 46 37
1955277N16134 1955 82 WP MM NORA 1955-10-11 18:00:00 TS 42.1000 147.450 970 tokyo main 203 189 OOO______O____ jtwc_wp WP181955 42.0000 148.000 60 0 42.2000 146.900 9 970 0 0 0 42.2000 146.900 4 77 970 42.0000 148.000 TC 60 4 45 41
1955277N16134 1955 82 WP MM NORA 1955-10-11 21:00:00 TS 43.7237 149.502 main 186 123 PPP______P____ WP181955 43.0011 149.618 55 0 44.4432 149.373 9 970 0 0 44.4495 149.398 4 77 970 43.0011 149.618 TC 55 4 43 43
1955277N16134 1955 82 WP MM NORA 1955-10-12 00:00:00 MX 45.2500 151.500 970 tokyo main 121 126 OOO______O____ jtwc_wp WP181955 44.0000 151.000 50 0 46.5000 152.000 9 970 0 0 0 46.5000 152.000 9 77 970 44.0000 151.000 TC 50 40 39
1955277N16134 1955 82 WP MM NORA 1955-10-12 03:00:00 MX 46.8238 153.089 main 220 195 PPP______P____ WP181955 45.7108 152.494 52 0 47.9368 153.683 9 967 0 0 47.9368 153.683 9 967 45.7108 152.494 TC 52 39 36
1955277N16134 1955 82 WP MM NORA 1955-10-12 06:00:00 MX 48.3571 154.857 965 tokyo main 181 118 OOO______O____ jtwc_wp WP181955 47.5000 154.000 55 0 49.0000 155.500 9 965 0 0 0 49.0000 155.500 9 965 47.5000 154.000 TC 55 41 48
1955277N16134 1955 82 WP MM NORA 1955-10-12 09:00:00 MX 49.5520 157.637 main 138 138 PPP______P____ WP181955 48.8906 155.496 60 0 49.8827 158.708 9 965 0 0 49.8827 158.708 9 965 48.8906 155.496 TC 60 45 63
1955277N16134 1955 82 WP MM NORA 1955-10-12 12:00:00 MX 50.4000 161.000 965 tokyo main 253 253 OOO______O____ jtwc_wp WP181955 50.0000 157.000 65 1 50.5000 162.000 9 965 0 0 0 50.5000 162.000 9 965 50.0000 157.000 TC 65 44 70
1955277N16134 1955 82 WP MM NORA 1955-10-12 15:00:00 ET 51.0591 164.198 main 356 356 _PP___________ WP181955 -1 51.0591 164.198 9 965 0 0 51.0591 164.198 9 965 TC 33 71
1955277N16134 1955 82 WP MM NORA 1955-10-12 18:00:00 ET 51.5000 166.000 965 tokyo main 436 436 _OO___________ -1 51.5000 166.000 9 965 0 0 0 51.5000 166.000 9 965 25 73
1955277N16134 1955 82 WP MM NORA 1955-10-12 21:00:00 ET 51.7653 168.010 main 505 505 _PP___________ -1 51.7616 168.010 9 962 0 0 51.7690 168.009 9 962 25 79
1955277N16134 1955 82 WP MM NORA 1955-10-13 00:00:00 ET 52.0000 170.000 960 tokyo main 600 600 _OO___________ -1 52.0000 170.000 9 960 0 0 0 52.0000 170.000 9 960 25 76
1955277N16134 1955 82 WP MM NORA 1955-10-13 03:00:00 ET 52.3510 171.965 main 695 695 _PP___________ -1 52.3798 171.963 9 957 0 0 52.3223 171.966 9 957 25 73
1955277N16134 1955 82 WP MM NORA 1955-10-13 06:00:00 ET 52.7571 174.000 955 tokyo main 776 776 _OO___________ -1 52.8000 174.000 9 955 0 0 0 52.7000 174.000 9 955 26 73
1955277N16134 1955 82 WP MM NORA 1955-10-13 09:00:00 ET 53.1356 176.159 main 834 826 _PP___________ -1 53.1509 176.144 9 955 0 0 53.1051 176.191 9 955 28 75
1955277N16134 1955 82 WP MM NORA 1955-10-13 12:00:00 ET 53.5000 178.500 955 tokyo main 836 673 _OO___________ -1 53.5000 178.500 9 955 0 0 0 53.5000 178.500 9 955 30 76
1955277N16134 1955 82 EP CP NORA 1955-10-13 15:00:00 NR 53.8630 181.151 main 661 500 _P____________ -1 53.8630 -178.849 9 955 0 0 9 33 78
1955277N16134 1955 82 EP CP NORA 1955-10-13 18:00:00 NR 54.2000 184.000 main 488 _O____________ -1 54.2000 184.000 9 955 0 0 0 34 79

デジタル台風データ・検索

IBTrACS Databaseについて

本データベースは、米国NOAAが公開する1842年以降の世界の熱帯低気圧のベストトラックデータアーカイブInternational Best Track Archive for Climate Stewardship (IBTrACS)を、ウェブで閲覧しやすい形式に変換したものです。

最終更新日:2021-10-25